Time;durP1;ratioP1;P1;durP2;ratioP2;P2;SDS_P1;SDS_P2;PMS_P1;PMS_P2;Temp;Humidity;BMP_temperature;BMP_pressure;BME280_temperature;BME280_humidity;BME280_pressure;Samples;Min_cycle;Max_cycle;Signal;HPM_P1;HPM_P2
2021/07/18 00:00:48;;;;;;;13.03;3.20;;;;;;;21.15;60.67;98282.81;8347294;28;20235;-69
2021/07/18 00:04:52;;;;;;;14.23;2.83;;;;;;;21.14;60.56;98277.66;8347340;28;20240;-69
2021/07/18 00:08:54;;;;;;;9.13;2.60;;;;;;;21.14;60.20;98280.31;8346703;28;20269;-69
2021/07/18 00:12:59;;;;;;;7.40;3.10;;;;;;;21.12;59.63;98263.78;8346958;28;20374;-69
2021/07/18 00:17:01;;;;;;;7.13;2.80;;;;;;;21.15;59.86;98263.53;8347114;28;20202;-69
2021/07/18 00:21:04;;;;;;;8.70;2.73;;;;;;;21.07;60.00;98266.78;8347133;28;20530;-69
2021/07/18 00:25:09;;;;;;;9.73;2.77;;;;;;;21.05;59.62;98273.97;8346864;28;20204;-69
2021/07/18 00:29:13;;;;;;;9.03;2.90;;;;;;;21.04;59.46;98262.63;8346736;28;20212;-70
2021/07/18 00:33:16;;;;;;;9.83;2.60;;;;;;;20.97;59.60;98256.19;8346343;28;20386;-70
2021/07/18 00:37:19;;;;;;;9.00;2.63;;;;;;;20.98;59.05;98265.78;8346206;28;20216;-69
2021/07/18 00:41:22;;;;;;;7.20;2.57;;;;;;;20.96;59.05;98261.56;8345537;28;20247;-69
2021/07/18 00:45:27;;;;;;;6.60;2.17;;;;;;;20.91;59.02;98261.13;8345488;28;20450;-69
2021/07/18 00:49:29;;;;;;;9.20;2.60;;;;;;;20.84;58.40;98263.41;8348262;28;20206;-69
2021/07/18 00:53:32;;;;;;;6.90;2.43;;;;;;;20.87;58.96;98266.63;8351412;28;20216;-68
2021/07/18 00:57:36;;;;;;;4.83;1.97;;;;;;;20.85;58.49;98268.56;8351556;28;20494;-68
2021/07/18 01:01:41;;;;;;;8.63;2.50;;;;;;;20.88;58.84;98265.66;8352195;28;20528;-69
2021/07/18 01:05:44;;;;;;;10.17;2.63;;;;;;;20.88;58.27;98265.66;8351748;28;20278;-69
2021/07/18 01:09:46;;;;;;;9.27;2.47;;;;;;;20.83;58.38;98267.03;8351576;28;20232;-69
2021/07/18 01:13:51;;;;;;;9.33;2.40;;;;;;;20.79;57.92;98270.84;8351401;28;20262;-69
2021/07/18 01:17:55;;;;;;;9.30;2.67;;;;;;;20.87;58.01;98276.34;8351459;28;20542;-69
2021/07/18 01:22:01;;;;;;;7.17;2.10;;;;;;;20.83;58.44;98277.56;8351424;28;20531;-69
2021/07/18 01:26:05;;;;;;;9.33;2.53;;;;;;;20.76;57.83;98269.31;8351399;28;20200;-69
2021/07/18 01:30:10;;;;;;;6.30;2.10;;;;;;;20.71;58.18;98268.84;8351091;28;20228;-69
2021/07/18 01:34:13;;;;;;;13.07;2.70;;;;;;;20.72;58.27;98274.97;8351145;28;20211;-68
2021/07/18 01:38:18;;;;;;;10.40;2.20;;;;;;;20.67;58.21;98276.16;8351049;28;20207;-68
2021/07/18 01:42:23;;;;;;;5.30;2.37;;;;;;;20.61;58.08;98276.66;8350373;28;20232;-69
2021/07/18 01:46:27;;;;;;;9.80;2.27;;;;;;;20.60;58.07;98282.88;8350463;28;20384;-69
2021/07/18 01:50:31;;;;;;;13.13;2.60;;;;;;;20.45;58.32;98276.19;8350608;28;20230;-69
2021/07/18 01:54:36;;;;;;;8.23;2.30;;;;;;;20.42;58.39;98272.00;8350379;28;20473;-69
2021/07/18 01:58:39;;;;;;;13.77;2.57;;;;;;;20.31;58.94;98272.88;8349203;28;20201;-69
2021/07/18 02:02:42;;;;;;;9.60;2.43;;;;;;;20.25;58.84;98275.97;8349784;28;20225;-69
2021/07/18 02:06:45;;;;;;;9.30;2.53;;;;;;;20.16;58.86;98271.44;8349687;28;20303;-69
2021/07/18 02:10:50;;;;;;;9.67;2.37;;;;;;;20.20;58.69;98269.41;8349514;28;20286;-69
2021/07/18 02:14:52;;;;;;;10.90;2.30;;;;;;;20.05;58.94;98274.09;8349341;28;20366;-69
2021/07/18 02:18:55;;;;;;;13.00;2.20;;;;;;;19.98;59.15;98278.97;8349386;28;20208;-69
2021/07/18 02:22:58;;;;;;;8.80;2.50;;;;;;;20.01;58.96;98278.75;8349098;28;20289;-69
2021/07/18 02:27:05;;;;;;;8.33;2.00;;;;;;;19.87;59.19;98284.22;8349277;28;20207;-69
2021/07/18 02:31:09;;;;;;;9.40;2.23;;;;;;;19.88;59.43;98278.03;8348933;28;20204;-69
2021/07/18 02:35:14;;;;;;;7.93;2.30;;;;;;;19.80;59.75;98277.78;8348921;28;20364;-68
2021/07/18 02:39:17;;;;;;;9.77;1.97;;;;;;;19.77;59.42;98263.09;8348901;28;20215;-68
2021/07/18 02:43:21;;;;;;;9.37;2.13;;;;;;;19.68;59.23;98263.75;8348480;28;20240;-68
2021/07/18 02:47:24;;;;;;;13.03;2.63;;;;;;;19.60;59.47;98259.09;8348360;28;20200;-68
2021/07/18 02:51:27;;;;;;;14.70;2.53;;;;;;;19.57;59.73;98251.44;8348614;28;20390;-68
2021/07/18 02:55:30;;;;;;;12.37;2.43;;;;;;;19.59;59.75;98257.44;8348558;28;20201;-69
2021/07/18 02:59:34;;;;;;;11.20;2.27;;;;;;;19.58;59.80;98266.25;8347916;28;20200;-68
2021/07/18 03:03:37;;;;;;;13.23;2.20;;;;;;;19.57;60.23;98271.63;8347889;28;20216;-68
2021/07/18 03:07:40;;;;;;;7.67;2.07;;;;;;;19.55;59.84;98266.47;8347334;28;20247;-68
2021/07/18 03:11:42;;;;;;;13.90;2.37;;;;;;;19.45;60.20;98268.16;8347596;28;20211;-68
2021/07/18 03:15:46;;;;;;;9.23;2.00;;;;;;;19.54;59.86;98275.34;8347519;28;20207;-68
2021/07/18 03:19:49;;;;;;;9.77;2.03;;;;;;;19.43;60.07;98278.78;8347632;28;20292;-69
2021/07/18 03:23:52;;;;;;;7.40;2.03;;;;;;;19.46;60.40;98273.28;8347296;28;20200;-69
2021/07/18 03:27:55;;;;;;;10.83;2.20;;;;;;;19.38;59.96;98275.66;8347268;28;20200;-68
2021/07/18 03:31:59;;;;;;;8.63;1.90;;;;;;;19.48;59.70;98286.31;8347330;28;20208;-68
2021/07/18 03:36:02;;;;;;;5.80;1.90;;;;;;;19.42;59.98;98287.63;8347128;28;20199;-68
2021/07/18 03:40:06;;;;;;;11.27;2.00;;;;;;;19.52;59.65;98285.13;8346825;28;20243;-69
2021/07/18 03:44:10;;;;;;;7.23;1.97;;;;;;;19.51;59.81;98283.44;8346951;28;20334;-68
2021/07/18 03:48:14;;;;;;;9.53;2.50;;;;;;;19.54;59.89;98291.09;8346694;28;20211;-69
2021/07/18 03:52:17;;;;;;;13.80;2.13;;;;;;;19.47;59.88;98290.72;8346716;28;20224;-68
2021/07/18 03:56:22;;;;;;;7.10;1.97;;;;;;;19.45;60.06;98291.78;8346863;28;20212;-68
2021/07/18 04:00:25;;;;;;;8.97;2.40;;;;;;;19.36;60.07;98292.47;8346723;28;20228;-68
2021/07/18 04:04:29;;;;;;;7.57;2.00;;;;;;;19.46;59.90;98301.34;8346677;28;20200;-68
2021/07/18 04:08:32;;;;;;;7.13;2.17;;;;;;;19.46;60.33;98294.31;8346440;28;20235;-69
2021/07/18 04:12:34;;;;;;;9.37;2.30;;;;;;;19.42;60.46;98285.00;8346374;28;20203;-69
2021/07/18 04:16:37;;;;;;;9.77;2.50;;;;;;;19.41;60.96;98299.06;8346346;28;20219;-68
2021/07/18 04:20:42;;;;;;;6.57;2.17;;;;;;;19.45;60.91;98294.41;8346376;28;20574;-68
2021/07/18 04:24:44;;;;;;;8.80;2.20;;;;;;;19.42;60.38;98298.13;8353432;28;20261;-68
2021/07/18 04:28:47;;;;;;;8.83;2.10;;;;;;;19.46;60.81;98296.09;8353476;28;20205;-68
2021/07/18 04:32:50;;;;;;;8.33;2.20;;;;;;;19.45;60.75;98297.03;8353575;28;20494;-68
2021/07/18 04:36:54;;;;;;;9.33;2.60;;;;;;;19.59;60.18;98296.00;8352581;28;20216;-68
2021/07/18 04:40:57;;;;;;;7.93;2.27;;;;;;;19.56;61.04;98312.00;8352388;28;20510;-68
2021/07/18 04:45:00;;;;;;;11.23;2.37;;;;;;;19.66;60.76;98307.72;8352401;28;20220;-68
2021/07/18 04:49:04;;;;;;;8.43;2.27;;;;;;;19.62;60.63;98309.72;8352638;28;20442;-68
2021/07/18 04:53:09;;;;;;;10.00;2.20;;;;;;;19.66;60.95;98311.16;8352234;28;20397;-68
2021/07/18 04:57:11;;;;;;;9.00;2.33;;;;;;;19.70;60.93;98317.88;8351913;28;20219;-69
2021/07/18 05:01:14;;;;;;;7.53;2.20;;;;;;;19.73;60.79;98322.91;8351848;28;20235;-68
2021/07/18 05:05:19;;;;;;;9.87;1.93;;;;;;;19.82;61.17;98326.66;8352016;28;20228;-68
2021/07/18 05:09:24;;;;;;;5.10;2.13;;;;;;;19.75;61.01;98335.13;8352069;28;20307;-69
2021/07/18 05:13:27;;;;;;;9.57;2.30;;;;;;;19.85;61.08;98331.66;8352459;28;20208;-69
2021/07/18 05:17:30;;;;;;;8.20;2.23;;;;;;;19.97;60.53;98329.91;8351522;28;20211;-68
2021/07/18 05:21:33;;;;;;;8.13;2.17;;;;;;;20.07;60.53;98328.22;8351541;28;20235;-68
2021/07/18 05:25:38;;;;;;;7.93;2.00;;;;;;;20.13;60.53;98334.78;8351253;28;20224;-68
2021/07/18 05:29:40;;;;;;;5.20;2.07;;;;;;;20.19;60.24;98336.94;8350479;28;20216;-68
2021/07/18 05:33:43;;;;;;;7.30;2.20;;;;;;;20.34;60.29;98342.78;8350085;28;20205;-68
2021/07/18 05:37:46;;;;;;;5.90;2.10;;;;;;;20.42;60.12;98339.56;8351283;28;20204;-68
2021/07/18 05:41:50;;;;;;;6.23;2.27;;;;;;;20.52;60.25;98332.59;8351013;28;20243;-68
2021/07/18 05:45:53;;;;;;;6.40;2.00;;;;;;;20.53;60.29;98339.53;8349948;28;20205;-68
2021/07/18 05:49:57;;;;;;;6.33;2.00;;;;;;;20.58;59.95;98350.56;8349767;28;20198;-68
2021/07/18 05:54:00;;;;;;;7.37;2.20;;;;;;;20.69;59.73;98352.34;8347192;28;20211;-68
2021/07/18 05:58:04;;;;;;;6.77;2.50;;;;;;;20.63;60.06;98351.03;8349892;28;20199;-68
2021/07/18 06:02:08;;;;;;;8.93;2.63;;;;;;;20.83;59.21;98354.72;8349561;28;20244;-68
2021/07/18 06:06:11;;;;;;;8.73;2.20;;;;;;;21.08;58.95;98358.81;8347289;28;20388;-68
2021/07/18 06:10:14;;;;;;;6.43;2.30;;;;;;;20.93;58.70;98348.72;8349482;28;20519;-68
2021/07/18 06:14:18;;;;;;;9.80;2.87;;;;;;;21.13;58.38;98353.16;8349643;28;20304;-68
2021/07/18 06:18:21;;;;;;;7.37;2.50;;;;;;;21.25;57.72;98362.72;8349312;28;20201;-69
2021/07/18 06:22:24;;;;;;;6.90;2.87;;;;;;;21.43;57.98;98364.78;8348957;28;20528;-68
2021/07/18 06:26:27;;;;;;;9.83;2.90;;;;;;;21.53;57.79;98364.91;8349629;28;20520;-68
2021/07/18 06:30:31;;;;;;;7.80;2.50;;;;;;;21.73;57.47;98365.88;8349758;28;20276;-68
2021/07/18 06:34:34;;;;;;;7.27;2.20;;;;;;;21.84;56.03;98371.09;8349503;28;20208;-69
2021/07/18 06:38:38;;;;;;;7.93;2.50;;;;;;;21.78;57.53;98358.41;8349637;28;20385;-69
2021/07/18 06:42:41;;;;;;;5.40;2.70;;;;;;;21.84;57.16;98358.72;8349692;28;20231;-69
2021/07/18 06:46:46;;;;;;;6.90;2.30;;;;;;;21.88;56.69;98367.22;8349265;28;20255;-69
2021/07/18 06:50:48;;;;;;;5.73;2.67;;;;;;;22.14;55.73;98359.72;8349699;28;20210;-69
2021/07/18 06:54:51;;;;;;;8.70;2.60;;;;;;;22.38;55.86;98372.63;8349174;28;20500;-69
2021/07/18 06:58:54;;;;;;;7.77;2.40;;;;;;;22.24;56.27;98372.97;8349064;28;20220;-69
2021/07/18 07:02:58;;;;;;;7.20;2.60;;;;;;;22.21;55.66;98370.59;8349302;28;20517;-69
2021/07/18 07:07:01;;;;;;;5.57;2.53;;;;;;;22.21;56.30;98375.84;8348689;28;20241;-69
2021/07/18 07:11:04;;;;;;;9.63;2.83;;;;;;;22.25;56.41;98372.84;8348836;28;20196;-69
2021/07/18 07:15:07;;;;;;;7.20;2.80;;;;;;;22.32;56.13;98372.34;8348614;28;20386;-71
2021/07/18 07:19:12;;;;;;;7.20;2.80;;;;;;;22.78;55.35;98377.06;8348174;28;20199;-69
2021/07/18 07:23:14;;;;;;;7.30;2.87;;;;;;;22.49;55.63;98384.91;8348979;28;20230;-69
2021/07/18 07:27:17;;;;;;;9.50;3.40;;;;;;;22.21;56.22;98389.88;8348290;28;20196;-69
2021/07/18 07:31:20;;;;;;;6.33;3.40;;;;;;;22.69;55.53;98387.59;8354158;28;20208;-69
2021/07/18 07:35:24;;;;;;;6.00;2.80;;;;;;;23.41;54.05;98381.19;8359877;28;20263;-69
2021/07/18 07:39:27;;;;;;;5.63;2.73;;;;;;;23.78;52.81;98385.78;8361292;28;20502;-69
2021/07/18 07:43:30;;;;;;;6.87;2.60;;;;;;;23.16;54.67;98386.06;8354856;28;20407;-69
2021/07/18 07:47:33;;;;;;;10.93;3.10;;;;;;;23.14;53.96;98376.59;8353512;28;20195;-69
2021/07/18 07:51:37;;;;;;;8.87;3.30;;;;;;;23.46;51.85;98375.50;8360432;28;20558;-69
2021/07/18 07:55:40;;;;;;;5.57;2.50;;;;;;;23.30;52.92;98374.22;8346208;28;20192;-70
2021/07/18 07:59:43;;;;;;;7.73;2.80;;;;;;;23.02;54.16;98381.16;8352452;28;20487;-70
2021/07/18 08:03:46;;;;;;;7.57;3.07;;;;;;;24.26;52.13;98376.91;8346667;28;20224;-69
2021/07/18 08:07:50;;;;;;;6.37;2.90;;;;;;;24.96;50.31;98371.16;8346468;28;20235;-69
2021/07/18 08:11:54;;;;;;;6.67;2.70;;;;;;;24.68;51.17;98370.34;8344758;28;20459;-69
2021/07/18 08:15:57;;;;;;;6.67;2.97;;;;;;;24.40;51.16;98379.06;8346377;28;20248;-68
2021/07/18 08:20:00;;;;;;;7.53;2.77;;;;;;;23.74;51.97;98369.34;8347524;28;20404;-68
2021/07/18 08:24:04;;;;;;;7.07;2.97;;;;;;;24.13;51.67;98363.16;8347671;28;20238;-69
2021/07/18 08:28:09;;;;;;;8.40;3.23;;;;;;;23.91;52.10;98364.31;8347322;28;20200;-70
2021/07/18 08:32:12;;;;;;;8.60;3.33;;;;;;;24.29;50.99;98360.72;8347526;28;20515;-69
2021/07/18 08:36:16;;;;;;;5.67;3.10;;;;;;;24.62;49.77;98355.88;8358640;28;20212;-70
2021/07/18 08:40:21;;;;;;;5.63;3.10;;;;;;;24.62;49.49;98357.66;8344896;28;20230;-70
2021/07/18 08:44:24;;;;;;;9.17;3.10;;;;;;;24.49;52.74;98360.66;8347184;28;20236;-67
2021/07/18 08:48:27;;;;;;;5.57;3.07;;;;;;;25.22;49.10;98363.28;8346812;28;20210;-67
2021/07/18 08:52:30;;;;;;;10.93;3.17;;;;;;;25.53;48.33;98363.75;8346967;28;20205;-68
2021/07/18 08:56:40;;;;;;;6.23;2.97;;;;;;;26.34;47.13;98364.47;8345479;28;20486;-67
2021/07/18 09:00:44;;;;;;;9.30;3.43;;;;;;;26.09;46.38;98366.16;8347399;28;20271;-67
2021/07/18 09:04:47;;;;;;;7.47;3.30;;;;;;;26.53;45.10;98352.75;8345986;28;20294;-67
2021/07/18 09:08:50;;;;;;;7.40;2.90;;;;;;;26.99;44.87;98358.56;8348388;28;20252;-67
2021/07/18 09:13:06;;;;;;;7.00;3.10;;;;;;;26.71;45.78;98365.97;8351647;28;20224;-67
2021/07/18 09:17:11;;;;;;;8.93;3.40;;;;;;;26.69;45.34;98366.13;8351586;28;20202;-66
2021/07/18 09:21:14;;;;;;;5.97;2.90;;;;;;;26.83;45.00;98367.34;8351249;28;20211;-67
2021/07/18 09:25:19;;;;;;;5.60;3.03;;;;;;;26.87;45.11;98354.56;8351878;28;20237;-66
2021/07/18 09:29:26;;;;;;;6.97;3.30;;;;;;;27.30;43.57;98357.97;8350965;28;20301;-66
2021/07/18 09:33:30;;;;;;;6.27;3.17;;;;;;;27.46;43.33;98342.03;8350983;28;20199;-66
2021/07/18 09:37:34;;;;;;;5.10;3.20;;;;;;;26.68;45.49;98343.22;8351366;28;20279;-66
2021/07/18 09:41:37;;;;;;;8.90;3.50;;;;;;;27.76;43.05;98341.50;8350580;28;20272;-67
2021/07/18 09:45:41;;;;;;;5.57;3.47;;;;;;;27.53;43.13;98339.56;8350778;28;20312;-67
2021/07/18 09:49:44;;;;;;;6.53;3.73;;;;;;;27.94;42.84;98331.53;8350874;28;20235;-66
2021/07/18 09:53:47;;;;;;;11.40;4.10;;;;;;;28.03;42.48;98338.50;8351098;28;20208;-66
2021/07/18 09:57:51;;;;;;;7.27;3.70;;;;;;;27.83;42.26;98335.31;8350210;28;20203;-67
2021/07/18 10:01:56;;;;;;;6.70;3.73;;;;;;;28.03;42.84;98332.34;8349860;28;20192;-67
2021/07/18 10:06:10;;;;;;;7.83;4.00;;;;;;;28.19;41.17;98329.63;8346946;28;20236;-67
2021/07/18 10:10:13;;;;;;;8.87;4.17;;;;;;;28.12;42.17;98326.00;8349625;28;20239;-67
2021/07/18 10:14:16;;;;;;;6.63;3.77;;;;;;;28.42;41.42;98323.53;8347219;28;20221;-68
2021/07/18 10:18:20;;;;;;;6.77;4.43;;;;;;;28.16;42.12;98324.66;8349469;28;20200;-67
2021/07/18 10:22:24;;;;;;;9.17;4.13;;;;;;;28.60;40.58;98321.50;8348711;28;20217;-67
2021/07/18 10:26:29;;;;;;;9.73;4.70;;;;;;;28.50;41.26;98315.50;8349991;28;20203;-66
2021/07/18 10:30:34;;;;;;;9.57;5.00;;;;;;;28.37;40.17;98315.22;8349909;28;20199;-67
2021/07/18 10:34:39;;;;;;;8.60;5.00;;;;;;;27.56;42.70;98325.91;8316918;28;20222;-66
2021/07/18 10:38:41;;;;;;;10.40;4.90;;;;;;;28.25;40.82;98318.28;8316946;28;20201;-66
2021/07/18 10:42:45;;;;;;;9.67;4.53;;;;;;;28.88;40.83;98317.50;8316435;28;20253;-66
2021/07/18 10:46:57;;;;;;;8.67;5.27;;;;;;;28.46;41.51;98320.38;8316949;28;20293;-67
2021/07/18 10:51:01;;;;;;;7.23;4.87;;;;;;;28.35;42.57;98317.25;8316633;28;20221;-67
2021/07/18 10:55:23;;;;;;;8.13;5.20;;;;;;;28.57;40.60;98315.69;8316790;28;20206;-67
2021/07/18 10:59:33;;;;;;;8.67;5.37;;;;;;;29.02;40.90;98314.91;8343649;28;20207;-67
2021/07/18 11:03:37;;;;;;;12.10;6.33;;;;;;;28.95;39.22;98315.78;8349138;28;20231;-67
2021/07/18 11:07:42;;;;;;;12.47;8.23;;;;;;;29.01;39.21;98307.91;8349366;28;20252;-67
2021/07/18 11:11:47;;;;;;;12.43;8.83;;;;;;;29.03;38.94;98321.06;8348719;28;20201;-67
2021/07/18 11:15:50;;;;;;;10.07;5.77;;;;;;;28.95;39.69;98321.13;8348420;28;20490;-66
2021/07/18 11:20:00;;;;;;;8.87;5.63;;;;;;;29.18;39.06;98327.31;8348138;28;20499;-67
2021/07/18 11:24:04;;;;;;;11.97;5.93;;;;;;;29.34;38.54;98323.69;8348266;28;20294;-67
2021/07/18 11:28:39;;;;;;;6.23;5.40;;;;;;;29.54;38.14;98313.34;8348257;28;20302;-67
2021/07/18 11:32:42;;;;;;;12.27;5.20;;;;;;;29.71;37.04;98308.69;8347437;28;20203;-67
2021/07/18 11:37:02;;;;;;;8.13;5.93;;;;;;;29.79;38.12;98308.63;8348185;28;20536;-67
2021/07/18 11:41:18;;;;;;;8.57;6.43;;;;;;;29.85;35.35;98301.72;8347957;28;20210;-67
2021/07/18 11:45:21;;;;;;;9.00;6.03;;;;;;;30.19;35.96;98287.00;8347634;28;20233;-67
2021/07/18 11:49:29;;;;;;;9.67;5.60;;;;;;;29.79;36.44;98294.44;8348010;28;20364;-67
2021/07/18 11:53:32;;;;;;;11.00;5.33;;;;;;;29.67;35.80;98287.88;8348300;28;20217;-67
2021/07/18 11:57:41;;;;;;;8.20;5.30;;;;;;;29.93;36.94;98288.31;8347882;28;20467;-67
2021/07/18 12:01:44;;;;;;;8.50;5.13;;;;;;;29.81;37.01;98281.75;8347348;28;20467;-67
2021/07/18 12:05:48;;;;;;;9.90;6.10;;;;;;;29.88;35.79;98266.66;8347326;28;20415;-67
2021/07/18 12:09:50;;;;;;;8.60;5.30;;;;;;;29.91;36.61;98271.66;8347332;28;20561;-66
2021/07/18 12:13:54;;;;;;;8.83;6.27;;;;;;;29.78;34.62;98266.94;8347580;28;20207;-66
2021/07/18 12:18:05;;;;;;;8.07;6.40;;;;;;;29.89;35.03;98260.31;8346945;28;20235;-67
2021/07/18 12:22:10;;;;;;;8.63;6.43;;;;;;;30.04;34.63;98257.63;8347149;28;20212;-67
2021/07/18 12:26:21;;;;;;;8.53;6.43;;;;;;;30.11;34.71;98258.53;8347306;28;20522;-66
2021/07/18 12:30:25;;;;;;;10.83;6.57;;;;;;;29.74;34.75;98262.13;8347121;28;20215;-66
2021/07/18 12:34:30;;;;;;;7.97;6.00;;;;;;;30.11;35.27;98244.38;8346805;28;20215;-66
2021/07/18 12:38:33;;;;;;;10.10;6.93;;;;;;;30.10;35.67;98256.91;8347097;28;20268;-67
2021/07/18 12:42:38;;;;;;;12.43;7.07;;;;;;;30.16;35.65;98245.47;8348274;28;20274;-67
2021/07/18 12:46:43;;;;;;;10.20;7.20;;;;;;;30.15;34.45;98246.47;8353579;28;20232;-66
2021/07/18 12:50:46;;;;;;;8.73;7.33;;;;;;;29.96;34.12;98239.03;8353732;28;20201;-67
2021/07/18 12:54:49;;;;;;;9.90;7.10;;;;;;;29.96;35.76;98231.84;8353338;28;20496;-67
2021/07/18 12:58:52;;;;;;;10.63;7.80;;;;;;;30.13;36.35;98234.34;8352290;28;20200;-67
2021/07/18 13:03:13;;;;;;;8.47;7.27;;;;;;;29.98;34.40;98231.69;8352559;28;20447;-66
2021/07/18 13:07:16;;;;;;;9.27;6.80;;;;;;;30.14;34.77;98222.63;8352721;28;20232;-67
2021/07/18 13:11:34;;;;;;;9.67;6.77;;;;;;;29.95;35.22;98224.03;8352694;28;20204;-66
2021/07/18 13:15:37;;;;;;;10.87;6.20;;;;;;;29.81;36.46;98223.03;8352987;28;20213;-66
2021/07/18 13:19:56;;;;;;;8.63;6.50;;;;;;;29.66;36.57;98223.00;8352812;28;20210;-67
2021/07/18 13:23:59;;;;;;;9.30;6.23;;;;;;;29.90;36.43;98218.44;8352519;28;20236;-66
2021/07/18 13:28:04;;;;;;;7.83;6.17;;;;;;;29.96;36.58;98221.19;8353050;28;20214;-66
2021/07/18 13:32:11;;;;;;;10.73;5.90;;;;;;;29.88;35.19;98215.94;8352810;28;20210;-67
2021/07/18 13:36:16;;;;;;;8.27;6.07;;;;;;;30.14;36.34;98210.13;8352928;28;20209;-66
2021/07/18 13:40:30;;;;;;;7.67;5.37;;;;;;;29.49;36.24;98225.00;8352911;28;20230;-66
2021/07/18 13:44:33;;;;;;;8.23;5.03;;;;;;;30.13;34.70;98207.63;8352108;28;20232;-66
2021/07/18 13:48:37;;;;;;;9.37;4.70;;;;;;;30.12;35.16;98196.13;8351983;28;20205;-66
2021/07/18 13:52:42;;;;;;;8.60;5.17;;;;;;;29.66;33.98;98208.84;8351499;28;20491;-67
2021/07/18 13:56:45;;;;;;;6.57;4.40;;;;;;;30.10;34.32;98197.31;8349636;28;20490;-66
2021/07/18 14:00:50;;;;;;;5.67;4.40;;;;;;;30.18;35.43;98194.56;8348602;28;20206;-70
2021/07/18 14:04:53;;;;;;;6.87;4.07;;;;;;;29.91;34.64;98196.91;8351189;28;20220;-70
2021/07/18 14:08:57;;;;;;;6.47;4.00;;;;;;;30.35;35.01;98204.00;8351124;28;20547;-70
2021/07/18 14:13:00;;;;;;;8.60;4.27;;;;;;;30.34;34.63;98197.00;8351613;28;20275;-69
2021/07/18 14:17:03;;;;;;;6.33;3.97;;;;;;;30.13;34.88;98189.75;8351239;28;20226;-69
2021/07/18 14:21:08;;;;;;;6.07;4.00;;;;;;;30.37;34.82;98190.47;8351639;28;20397;-70
2021/07/18 14:25:14;;;;;;;6.20;4.00;;;;;;;30.40;35.31;98188.22;8351276;28;20228;-70
2021/07/18 14:29:17;;;;;;;5.60;3.50;;;;;;;30.33;35.90;98184.69;8351007;28;20196;-70
2021/07/18 14:33:20;;;;;;;7.93;3.50;;;;;;;30.38;34.22;98178.75;8350733;28;20201;-70
2021/07/18 14:37:23;;;;;;;5.13;3.50;;;;;;;30.16;35.14;98173.38;8351087;28;20205;-71
2021/07/18 14:41:27;;;;;;;10.93;4.00;;;;;;;30.15;34.99;98179.72;8350540;28;20226;-70
2021/07/18 14:45:30;;;;;;;4.20;3.40;;;;;;;30.21;35.97;98172.78;8350365;28;20240;-70
2021/07/18 14:49:33;;;;;;;4.67;3.53;;;;;;;29.88;34.42;98167.91;8350240;28;20201;-69
2021/07/18 14:53:36;;;;;;;5.03;3.80;;;;;;;30.03;34.99;98170.53;8350379;28;20202;-68
2021/07/18 14:57:40;;;;;;;6.87;3.50;;;;;;;30.10;35.09;98159.94;8350190;28;20205;-68
2021/07/18 15:01:43;;;;;;;6.47;3.50;;;;;;;30.08;35.53;98162.78;8350725;28;20201;-68
2021/07/18 15:05:48;;;;;;;6.27;3.90;;;;;;;29.95;35.87;98162.63;8349450;28;20241;-69
2021/07/18 15:09:50;;;;;;;5.97;4.03;;;;;;;29.91;34.26;98161.34;8349691;28;20391;-68
2021/07/18 15:13:55;;;;;;;7.97;3.73;;;;;;;29.94;35.47;98161.81;8349133;28;20201;-69
2021/07/18 15:17:57;;;;;;;6.23;3.90;;;;;;;29.74;35.45;98160.72;8349379;28;20204;-68
2021/07/18 15:22:00;;;;;;;5.47;4.07;;;;;;;29.71;35.89;98156.56;8348949;28;20250;-68
2021/07/18 15:26:04;;;;;;;5.40;3.90;;;;;;;29.63;36.67;98160.16;8367630;28;20232;-69
2021/07/18 15:30:10;;;;;;;6.97;3.67;;;;;;;29.34;35.53;98150.34;8381575;28;20232;-68
2021/07/18 15:34:12;;;;;;;6.63;3.87;;;;;;;29.08;36.09;98155.25;8351579;28;20464;-69
2021/07/18 15:38:15;;;;;;;6.87;4.00;;;;;;;29.31;36.72;98149.88;8347996;28;20200;-69
2021/07/18 15:42:18;;;;;;;4.90;4.13;;;;;;;29.12;37.14;98132.53;8347706;28;20278;-69
2021/07/18 15:46:22;;;;;;;9.23;4.47;;;;;;;29.12;36.09;98137.88;8347699;28;20244;-69
2021/07/18 15:50:27;;;;;;;7.17;4.10;;;;;;;29.11;37.79;98133.53;8346392;28;20200;-70
2021/07/18 15:54:30;;;;;;;7.27;4.20;;;;;;;29.06;37.06;98134.09;8347667;28;20203;-70
2021/07/18 15:58:32;;;;;;;5.57;4.13;;;;;;;28.96;37.49;98139.69;8347455;28;20381;-70
2021/07/18 16:02:41;;;;;;;5.77;4.40;;;;;;;28.95;37.54;98138.03;8348172;28;20203;-70
2021/07/18 16:06:44;;;;;;;9.53;4.87;;;;;;;28.83;36.88;98128.81;8344235;28;20249;-70
2021/07/18 16:10:47;;;;;;;6.13;4.03;;;;;;;28.65;37.67;98131.78;8346961;28;20219;-70
2021/07/18 16:14:50;;;;;;;6.20;4.77;;;;;;;28.69;38.42;98125.09;8346831;28;20206;-69
2021/07/18 16:18:55;;;;;;;19.97;9.73;;;;;;;28.70;38.28;98131.28;8350442;28;20199;-70
2021/07/18 16:22:57;;;;;;;20.73;7.10;;;;;;;28.53;37.71;98127.91;8350971;28;20213;-70
2021/07/18 16:27:04;;;;;;;9.17;5.43;;;;;;;28.62;38.37;98125.00;8351659;28;20321;-70
2021/07/18 16:31:07;;;;;;;22.90;11.40;;;;;;;28.57;38.06;98130.03;8353519;28;20490;-70
2021/07/18 16:35:15;;;;;;;9.43;6.77;;;;;;;28.31;37.37;98125.06;8353612;28;20203;-71
2021/07/18 16:39:18;;;;;;;18.47;12.23;;;;;;;28.34;38.31;98126.53;8353196;28;20255;-67
2021/07/18 16:43:21;;;;;;;29.93;18.40;;;;;;;28.24;38.76;98126.75;8352781;28;20195;-67
2021/07/18 16:47:24;;;;;;;28.30;16.20;;;;;;;28.24;39.28;98127.59;8352910;28;20427;-66
2021/07/18 16:51:28;;;;;;;9.47;7.17;;;;;;;27.95;38.58;98133.59;8353021;28;20209;-67
2021/07/18 16:55:31;;;;;;;13.73;8.87;;;;;;;27.91;39.53;98128.78;8352967;28;20208;-67
2021/07/18 16:59:34;;;;;;;19.07;10.10;;;;;;;27.91;38.58;98126.94;8352680;28;20473;-67
2021/07/18 17:03:37;;;;;;;15.87;10.87;;;;;;;27.76;38.35;98128.66;8352242;28;20209;-70
2021/07/18 17:07:42;;;;;;;14.00;8.40;;;;;;;27.78;39.21;98135.47;8351802;28;20526;-70
2021/07/18 17:11:45;;;;;;;14.27;7.93;;;;;;;27.61;39.23;98134.72;8352503;28;20282;-69
2021/07/18 17:15:48;;;;;;;10.90;7.70;;;;;;;27.56;39.39;98130.91;8352150;28;20210;-69
2021/07/18 17:19:51;;;;;;;13.17;8.03;;;;;;;27.53;39.41;98139.22;8352565;28;20202;-69
2021/07/18 17:23:55;;;;;;;10.73;7.10;;;;;;;27.38;39.75;98139.09;8351793;28;20212;-71
2021/07/18 17:27:58;;;;;;;12.90;7.60;;;;;;;27.26;40.11;98138.63;8351977;28;20227;-69
2021/07/18 17:32:03;;;;;;;11.60;5.63;;;;;;;27.14;40.35;98138.16;8352561;28;20202;-66
2021/07/18 17:36:07;;;;;;;8.33;4.97;;;;;;;27.12;40.55;98134.81;8352672;28;20205;-66
2021/07/18 17:40:12;;;;;;;11.57;4.37;;;;;;;27.14;40.82;98142.63;8352105;28;20208;-66
2021/07/18 17:44:15;;;;;;;7.23;3.47;;;;;;;27.03;41.37;98134.00;8352121;28;20195;-66
2021/07/18 17:48:18;;;;;;;5.30;3.70;;;;;;;26.96;41.47;98137.50;8351843;28;20234;-66
2021/07/18 17:52:20;;;;;;;5.23;3.73;;;;;;;26.90;41.20;98136.34;8352103;28;20216;-66
2021/07/18 17:56:25;;;;;;;4.23;3.47;;;;;;;26.86;40.95;98138.50;8351823;28;20212;-66
2021/07/18 18:00:27;;;;;;;6.33;3.60;;;;;;;26.78;41.57;98138.53;8351684;28;20208;-66
2021/07/18 18:04:30;;;;;;;4.80;3.40;;;;;;;26.73;42.12;98146.16;8351406;28;20212;-66
2021/07/18 18:08:33;;;;;;;5.23;3.23;;;;;;;26.73;42.11;98146.16;8350633;28;20248;-67
2021/07/18 18:12:37;;;;;;;4.37;3.27;;;;;;;26.70;42.10;98139.34;8350733;28;20306;-66
2021/07/18 18:16:40;;;;;;;7.33;3.33;;;;;;;26.61;42.80;98143.00;8350019;28;20210;-66
2021/07/18 18:20:43;;;;;;;6.13;3.37;;;;;;;26.51;43.02;98142.31;8350456;28;20194;-66
2021/07/18 18:24:48;;;;;;;3.67;3.10;;;;;;;26.47;43.37;98143.66;8350543;28;20207;-66
2021/07/18 18:28:52;;;;;;;6.87;3.50;;;;;;;26.44;42.84;98143.97;8350789;28;20228;-66
2021/07/18 18:32:57;;;;;;;5.47;3.87;;;;;;;26.35;43.92;98148.44;8350733;28;20204;-65
2021/07/18 18:37:00;;;;;;;4.00;3.10;;;;;;;26.33;44.15;98142.44;8350541;28;20211;-68
2021/07/18 18:41:03;;;;;;;7.07;3.70;;;;;;;26.27;44.53;98146.63;8348903;28;20550;-68
2021/07/18 18:45:09;;;;;;;8.07;3.77;;;;;;;26.24;45.33;98144.28;8349152;28;20206;-67
2021/07/18 18:49:12;;;;;;;4.80;3.67;;;;;;;26.12;45.83;98148.22;8349171;28;20356;-68
2021/07/18 18:53:17;;;;;;;5.87;3.43;;;;;;;26.10;46.19;98155.50;8348982;28;20201;-68
2021/07/18 18:57:20;;;;;;;7.87;3.67;;;;;;;26.04;47.21;98157.00;8348536;28;20205;-67
2021/07/18 19:01:26;;;;;;;9.93;3.97;;;;;;;25.96;47.99;98158.81;8348465;28;20219;-68
2021/07/18 19:05:29;;;;;;;6.10;3.67;;;;;;;25.92;48.17;98163.59;8348319;28;20209;-68